Joliet, Montana
Current Conditions -  °F | °C
As of 5:53 AM on Friday 24 Oct 2014 (Local Time) from KBIL Reporting Station
Broken Clouds Broken Clouds  
Wind Chill: 51°   Ceiling: 18000
Heat Index: 51°   Visibility: 10mi
Dew Point: 36°   Wind: 0mph
Humidity: 56%   Direction: NA
Pressure: 29.96"   Gusts: NA
Location:  45.49°N, 108.97°W
Report Text: KBIL 241153Z 00000KT 10SM BKN180 11/02 A2996 RMK AO2 SLP130 T01060022 10172 20089 53015
Loading
Personal Weather Stations






























Interactive Weather Map
Tropical Storm Tracking
New forecast layout! Learn more

10-Day Weather Forecast

Advertisements
Track Severe Weather on mobile